TimeCST,TemperatureF,Dew PointF,Humidity,Sea Level PressureIn,VisibilityMPH,Wind Direction,Wind SpeedMPH,Gust SpeedMPH,PrecipitationIn,Events,Conditions,WindDirDegrees,DateUTC
12:15 AM,26.6,22.6,85,30.24,10.0,NW,10.4,-,N/A,,Overcast,320,2013-01-03 06:15:00
12:35 AM,26.6,22.5,84,30.24,10.0,NW,10.4,-,N/A,,Overcast,310,2013-01-03 06:35:00
12:55 AM,26.6,22.8,86,30.24,10.0,NW,12.7,-,N/A,,Overcast,320,2013-01-03 06:55:00
1:15 AM,26.6,22.8,86,30.24,10.0,NW,11.5,-,N/A,,Overcast,310,2013-01-03 07:15:00
1:35 AM,26.6,23.0,86,30.25,10.0,NW,11.5,-,N/A,,Overcast,320,2013-01-03 07:35:00
1:55 AM,26.6,23.4,88,30.25,10.0,NW,11.5,-,N/A,,Overcast,320,2013-01-03 07:55:00
2:15 AM,27.0,23.9,88,30.25,10.0,NW,11.5,-,N/A,,Overcast,320,2013-01-03 08:15:00
2:35 AM,27.0,24.3,90,30.26,10.0,NW,11.5,-,N/A,,Overcast,320,2013-01-03 08:35:00
2:55 AM,27.1,24.6,90,30.26,10.0,NW,9.2,-,N/A,,Overcast,320,2013-01-03 08:55:00
3:15 AM,27.5,24.8,90,30.26,7.0,NW,13.8,-,N/A,,Overcast,310,2013-01-03 09:15:00
3:35 AM,27.5,25.0,90,30.26,7.0,NW,17.3,21.9,N/A,,Overcast,320,2013-01-03 09:35:00
3:55 AM,24.6,22.3,91,30.28,4.0,North,15.0,-,N/A,Snow,Light Snow,360,2013-01-03 09:55:00
4:15 AM,23.5,21.2,91,30.28,10.0,North,16.1,20.7,N/A,,Overcast,360,2013-01-03 10:15:00
4:35 AM,21.6,19.0,90,30.28,10.0,North,17.3,-,N/A,,Overcast,350,2013-01-03 10:35:00
4:55 AM,19.9,16.5,87,30.29,10.0,North,13.8,-,N/A,,Overcast,350,2013-01-03 10:55:00
5:15 AM,19.2,16.2,88,30.29,10.0,North,11.5,-,N/A,,Overcast,360,2013-01-03 11:15:00
5:35 AM,19.0,16.0,88,30.30,10.0,North,9.2,-,N/A,,Overcast,350,2013-01-03 11:35:00
5:55 AM,19.2,16.3,89,30.30,10.0,North,6.9,-,N/A,,Overcast,360,2013-01-03 11:55:00
6:15 AM,19.2,16.3,89,30.30,10.0,North,8.1,-,N/A,,Overcast,350,2013-01-03 12:15:00
6:35 AM,19.2,16.5,89,30.31,10.0,North,6.9,-,N/A,,Overcast,350,2013-01-03 12:35:00
6:55 AM,19.4,16.7,89,30.32,10.0,NNW,3.5,-,N/A,,Overcast,340,2013-01-03 12:55:00
7:15 AM,19.4,17.6,93,30.33,10.0,North,4.6,-,N/A,,Overcast,350,2013-01-03 13:15:00
7:35 AM,19.8,17.2,90,30.33,10.0,NNW,6.9,-,N/A,,Overcast,330,2013-01-03 13:35:00
7:55 AM,19.9,17.2,89,30.33,10.0,NW,4.6,-,N/A,,Overcast,320,2013-01-03 13:55:00
8:15 AM,20.1,17.4,89,30.33,10.0,NW,3.5,-,N/A,,Overcast,320,2013-01-03 14:15:00
8:35 AM,20.3,17.6,89,30.33,10.0,WNW,3.5,-,N/A,,Overcast,290,2013-01-03 14:35:00
8:55 AM,20.5,18.0,90,30.33,10.0,West,3.5,-,N/A,Snow,Light Snow,260,2013-01-03 14:55:00
9:15 AM,21.2,17.6,86,30.33,10.0,Calm,Calm,-,N/A,,Overcast,0,2013-01-03 15:15:00
9:35 AM,19.6,15.8,85,30.33,10.0,West,5.8,-,N/A,,Mostly Cloudy,260,2013-01-03 15:35:00
9:55 AM,20.8,16.9,85,30.33,10.0,West,6.9,-,N/A,,Mostly Cloudy,260,2013-01-03 15:55:00
10:15 AM,21.2,17.2,85,30.34,10.0,West,5.8,-,N/A,,Overcast,260,2013-01-03 16:15:00
10:35 AM,22.1,17.6,83,30.34,10.0,West,6.9,-,N/A,,Overcast,260,2013-01-03 16:35:00
10:55 AM,22.8,17.6,80,30.34,10.0,West,8.1,-,N/A,,Overcast,260,2013-01-03 16:55:00
11:15 AM,23.9,18.1,79,30.33,10.0,WSW,6.9,-,N/A,,Overcast,250,2013-01-03 17:15:00
11:35 AM,24.8,18.5,77,30.32,10.0,West,6.9,-,N/A,,Overcast,260,2013-01-03 17:35:00
11:55 AM,25.3,18.1,74,30.32,10.0,WSW,9.2,-,N/A,,Mostly Cloudy,250,2013-01-03 17:55:00
12:15 PM,26.6,18.7,72,30.31,10.0,West,8.1,-,N/A,,Scattered Clouds,270,2013-01-03 18:15:00
12:35 PM,27.0,18.1,69,30.30,10.0,WSW,6.9,-,N/A,,Clear,250,2013-01-03 18:35:00
12:55 PM,28.0,17.8,65,30.29,10.0,West,10.4,-,N/A,,Clear,270,2013-01-03 18:55:00
1:15 PM,28.4,18.7,67,30.28,10.0,West,11.5,-,N/A,,Mostly Cloudy,270,2013-01-03 19:15:00
1:35 PM,28.4,18.5,66,30.27,10.0,West,9.2,-,N/A,,Scattered Clouds,270,2013-01-03 19:35:00
1:55 PM,28.8,18.1,65,30.26,10.0,West,13.8,-,N/A,,Scattered Clouds,260,2013-01-03 19:55:00
2:15 PM,28.9,18.5,65,30.25,10.0,West,11.5,-,N/A,,Scattered Clouds,270,2013-01-03 20:15:00
2:35 PM,28.4,18.9,67,30.25,10.0,West,10.4,-,N/A,,Scattered Clouds,280,2013-01-03 20:35:00
2:55 PM,29.1,19.2,67,30.25,10.0,West,10.4,-,N/A,,Scattered Clouds,280,2013-01-03 20:55:00
3:15 PM,29.1,18.9,66,30.25,10.0,West,9.2,-,N/A,,Scattered Clouds,270,2013-01-03 21:15:00
3:35 PM,29.1,18.9,66,30.25,10.0,WSW,11.5,-,N/A,,Clear,250,2013-01-03 21:35:00
3:55 PM,29.1,18.7,65,30.24,10.0,WSW,9.2,-,N/A,,Clear,240,2013-01-03 21:55:00
4:15 PM,28.9,18.5,65,30.24,10.0,WSW,8.1,-,N/A,,Clear,240,2013-01-03 22:15:00
4:35 PM,28.2,18.1,66,30.24,10.0,SW,6.9,-,N/A,,Clear,230,2013-01-03 22:35:00
4:55 PM,26.6,17.6,69,30.25,10.0,WSW,3.5,-,N/A,,Clear,240,2013-01-03 22:55:00
5:15 PM,25.7,17.4,71,30.25,10.0,SW,4.6,-,N/A,,Clear,220,2013-01-03 23:15:00
5:35 PM,24.6,17.2,74,30.25,10.0,SW,3.5,-,N/A,,Clear,220,2013-01-03 23:35:00
5:55 PM,23.0,16.5,76,30.25,10.0,SSW,3.5,-,N/A,,Clear,210,2013-01-03 23:55:00
6:15 PM,22.6,16.5,77,30.25,10.0,SSW,4.6,-,N/A,,Clear,200,2013-01-04 00:15:00
6:35 PM,21.4,15.8,79,30.25,10.0,SSW,3.5,-,N/A,,Clear,210,2013-01-04 00:35:00
6:55 PM,20.1,14.9,80,30.25,10.0,Calm,Calm,-,N/A,,Clear,0,2013-01-04 00:55:00
7:15 PM,18.5,13.6,81,30.25,10.0,SW,4.6,-,N/A,,Clear,230,2013-01-04 01:15:00
7:35 PM,17.8,13.5,83,30.25,10.0,SW,3.5,-,N/A,,Clear,230,2013-01-04 01:35:00
7:55 PM,18.0,13.1,81,30.24,10.0,SW,8.1,-,N/A,,Clear,220,2013-01-04 01:55:00
8:15 PM,16.5,12.7,85,30.23,10.0,SSW,5.8,-,N/A,,Clear,210,2013-01-04 02:15:00
8:35 PM,14.9,10.9,84,30.22,10.0,SW,5.8,-,N/A,,Clear,220,2013-01-04 02:35:00
8:55 PM,15.3,11.7,86,30.22,10.0,SW,6.9,-,N/A,,Clear,220,2013-01-04 02:55:00
9:15 PM,15.8,12.2,86,30.21,10.0,SW,5.8,-,N/A,,Clear,220,2013-01-04 03:15:00
9:35 PM,15.6,12.0,86,30.21,10.0,SW,8.1,-,N/A,,Clear,220,2013-01-04 03:35:00
9:55 PM,16.3,12.4,84,30.21,10.0,SW,6.9,-,N/A,,Clear,220,2013-01-04 03:55:00
10:15 PM,15.6,11.8,85,30.20,10.0,SW,6.9,-,N/A,,Clear,220,2013-01-04 04:15:00
10:35 PM,16.2,12.2,84,30.19,10.0,SW,10.4,-,N/A,,Clear,220,2013-01-04 04:35:00
10:55 PM,16.2,12.0,84,30.19,10.0,SW,9.2,-,N/A,,Clear,220,2013-01-04 04:55:00
11:15 PM,15.6,11.7,84,30.19,10.0,SW,8.1,-,N/A,,Clear,230,2013-01-04 05:15:00
11:35 PM,15.3,11.3,84,30.19,10.0,SW,8.1,-,N/A,,Clear,220,2013-01-04 05:35:00
11:55 PM,16.3,12.0,83,30.18,10.0,SW,8.1,-,N/A,,Clear,230,2013-01-04 05:55:00